sensor_id;sensor_type;location;lat;lon;timestamp;P1;durP1;ratioP1;P2;durP2;ratioP2
17496;SDS011;62150;43.582;1.456;2024-01-30T04:39:37;6.87;;;2.93;;
17496;SDS011;62150;43.582;1.456;2024-01-30T04:42:05;8.20;;;3.40;;
17496;SDS011;62150;43.582;1.456;2024-01-30T04:44:32;8.73;;;3.57;;
17496;SDS011;62150;43.582;1.456;2024-01-30T04:47:00;10.23;;;3.67;;
17496;SDS011;62150;43.582;1.456;2024-01-30T04:49:27;11.50;;;3.90;;
17496;SDS011;62150;43.582;1.456;2024-01-30T04:51:55;7.90;;;3.67;;
17496;SDS011;62150;43.582;1.456;2024-01-30T04:54:23;10.77;;;5.00;;
17496;SDS011;62150;43.582;1.456;2024-01-30T04:56:52;8.80;;;3.47;;
17496;SDS011;62150;43.582;1.456;2024-01-30T04:59:19;10.60;;;3.83;;
17496;SDS011;62150;43.582;1.456;2024-01-30T05:01:47;10.47;;;3.93;;
17496;SDS011;62150;43.582;1.456;2024-01-30T05:04:14;10.53;;;3.77;;
17496;SDS011;62150;43.582;1.456;2024-01-30T05:06:42;9.17;;;3.77;;
17496;SDS011;62150;43.582;1.456;2024-01-30T05:09:11;11.30;;;3.90;;
17496;SDS011;62150;43.582;1.456;2024-01-30T05:11:38;8.80;;;3.70;;
17496;SDS011;62150;43.582;1.456;2024-01-30T05:14:07;7.97;;;3.67;;
17496;SDS011;62150;43.582;1.456;2024-01-30T05:16:36;10.50;;;3.80;;
17496;SDS011;62150;43.582;1.456;2024-01-30T05:19:04;9.87;;;3.80;;
17496;SDS011;62150;43.582;1.456;2024-01-30T05:21:31;9.40;;;3.93;;
17496;SDS011;62150;43.582;1.456;2024-01-30T05:23:59;11.63;;;4.03;;
17496;SDS011;62150;43.582;1.456;2024-01-30T05:26:26;8.70;;;3.70;;
17496;SDS011;62150;43.582;1.456;2024-01-30T05:28:54;9.90;;;3.90;;
17496;SDS011;62150;43.582;1.456;2024-01-30T05:31:23;9.70;;;4.10;;
17496;SDS011;62150;43.582;1.456;2024-01-30T05:33:52;10.17;;;3.90;;
17496;SDS011;62150;43.582;1.456;2024-01-30T05:36:20;10.67;;;3.90;;
17496;SDS011;62150;43.582;1.456;2024-01-30T05:38:48;10.57;;;4.43;;
17496;SDS011;62150;43.582;1.456;2024-01-30T05:41:15;10.63;;;4.27;;
17496;SDS011;62150;43.582;1.456;2024-01-30T05:43:43;10.00;;;3.90;;
17496;SDS011;62150;43.582;1.456;2024-01-30T05:46:10;11.17;;;3.90;;
17496;SDS011;62150;43.582;1.456;2024-01-30T05:48:39;11.13;;;4.20;;
17496;SDS011;62150;43.582;1.456;2024-01-30T05:51:07;11.43;;;4.07;;
17496;SDS011;62150;43.582;1.456;2024-01-30T05:53:34;9.87;;;4.03;;
17496;SDS011;62150;43.582;1.456;2024-01-30T05:56:02;10.10;;;3.77;;
17496;SDS011;62150;43.582;1.456;2024-01-30T05:58:30;11.63;;;3.70;;
17496;SDS011;62150;43.582;1.456;2024-01-30T06:00:58;8.33;;;3.60;;
17496;SDS011;62150;43.582;1.456;2024-01-30T06:03:25;10.57;;;3.77;;
17496;SDS011;62150;43.582;1.456;2024-01-30T06:05:54;9.93;;;3.90;;
17496;SDS011;62150;43.582;1.456;2024-01-30T06:08:21;10.57;;;3.90;;
17496;SDS011;62150;43.582;1.456;2024-01-30T06:10:49;11.93;;;4.10;;
17496;SDS011;62150;43.582;1.456;2024-01-30T06:13:17;9.63;;;3.80;;
17496;SDS011;62150;43.582;1.456;2024-01-30T06:15:44;10.47;;;3.80;;
17496;SDS011;62150;43.582;1.456;2024-01-30T06:18:12;10.20;;;3.77;;
17496;SDS011;62150;43.582;1.456;2024-01-30T06:20:39;9.47;;;3.77;;
17496;SDS011;62150;43.582;1.456;2024-01-30T06:23:08;11.23;;;4.07;;
17496;SDS011;62150;43.582;1.456;2024-01-30T06:25:38;12.03;;;3.83;;
17496;SDS011;62150;43.582;1.456;2024-01-30T06:28:05;10.07;;;3.87;;
17496;SDS011;62150;43.582;1.456;2024-01-30T06:30:33;10.67;;;3.83;;
17496;SDS011;62150;43.582;1.456;2024-01-30T06:33:00;8.47;;;3.80;;
17496;SDS011;62150;43.582;1.456;2024-01-30T06:35:28;11.10;;;4.40;;
17496;SDS011;62150;43.582;1.456;2024-01-30T06:37:55;10.17;;;3.80;;
17496;SDS011;62150;43.582;1.456;2024-01-30T06:40:24;10.87;;;4.00;;
17496;SDS011;62150;43.582;1.456;2024-01-30T06:42:52;9.63;;;4.00;;
17496;SDS011;62150;43.582;1.456;2024-01-30T06:45:19;8.87;;;3.83;;
17496;SDS011;62150;43.582;1.456;2024-01-30T06:47:47;9.73;;;3.83;;
17496;SDS011;62150;43.582;1.456;2024-01-30T06:50:15;10.83;;;4.07;;
17496;SDS011;62150;43.582;1.456;2024-01-30T06:52:42;13.70;;;4.23;;
17496;SDS011;62150;43.582;1.456;2024-01-30T06:55:10;7.97;;;3.53;;
17496;SDS011;62150;43.582;1.456;2024-01-30T06:57:38;9.97;;;3.90;;
17496;SDS011;62150;43.582;1.456;2024-01-30T07:00:06;11.00;;;4.03;;
17496;SDS011;62150;43.582;1.456;2024-01-30T07:02:34;11.63;;;3.63;;
17496;SDS011;62150;43.582;1.456;2024-01-30T07:05:02;12.43;;;4.20;;
17496;SDS011;62150;43.582;1.456;2024-01-30T07:07:30;10.23;;;3.83;;
17496;SDS011;62150;43.582;1.456;2024-01-30T07:09:58;12.97;;;4.00;;
17496;SDS011;62150;43.582;1.456;2024-01-30T07:12:25;11.67;;;3.83;;
17496;SDS011;62150;43.582;1.456;2024-01-30T07:14:54;11.13;;;4.00;;
17496;SDS011;62150;43.582;1.456;2024-01-30T07:17:24;9.97;;;3.77;;
17496;SDS011;62150;43.582;1.456;2024-01-30T07:19:51;12.37;;;4.43;;
17496;SDS011;62150;43.582;1.456;2024-01-30T07:22:19;10.17;;;4.00;;
17496;SDS011;62150;43.582;1.456;2024-01-30T07:24:46;11.00;;;3.97;;
17496;SDS011;62150;43.582;1.456;2024-01-30T07:27:14;11.67;;;4.10;;
17496;SDS011;62150;43.582;1.456;2024-01-30T07:29:43;10.20;;;4.27;;
17496;SDS011;62150;43.582;1.456;2024-01-30T07:32:12;10.07;;;4.13;;
17496;SDS011;62150;43.582;1.456;2024-01-30T07:34:40;10.40;;;4.00;;
17496;SDS011;62150;43.582;1.456;2024-01-30T07:37:08;13.77;;;4.40;;
17496;SDS011;62150;43.582;1.456;2024-01-30T07:39:36;9.57;;;4.13;;
17496;SDS011;62150;43.582;1.456;2024-01-30T07:42:04;9.97;;;3.93;;
17496;SDS011;62150;43.582;1.456;2024-01-30T07:44:31;12.03;;;4.30;;
17496;SDS011;62150;43.582;1.456;2024-01-30T07:46:59;11.57;;;4.20;;
17496;SDS011;62150;43.582;1.456;2024-01-30T07:49:29;10.47;;;4.07;;
17496;SDS011;62150;43.582;1.456;2024-01-30T07:51:57;11.63;;;3.90;;
17496;SDS011;62150;43.582;1.456;2024-01-30T07:54:25;10.93;;;4.47;;
17496;SDS011;62150;43.582;1.456;2024-01-30T07:56:52;10.03;;;4.20;;
17496;SDS011;62150;43.582;1.456;2024-01-30T07:59:20;9.53;;;4.07;;
17496;SDS011;62150;43.582;1.456;2024-01-30T08:01:49;12.57;;;4.33;;
17496;SDS011;62150;43.582;1.456;2024-01-30T08:04:17;10.10;;;4.80;;
17496;SDS011;62150;43.582;1.456;2024-01-30T08:06:46;12.47;;;4.43;;
17496;SDS011;62150;43.582;1.456;2024-01-30T08:09:13;9.57;;;4.37;;
17496;SDS011;62150;43.582;1.456;2024-01-30T08:11:41;13.83;;;4.70;;
17496;SDS011;62150;43.582;1.456;2024-01-30T08:14:08;11.23;;;4.30;;
17496;SDS011;62150;43.582;1.456;2024-01-30T08:16:36;11.30;;;4.20;;
17496;SDS011;62150;43.582;1.456;2024-01-30T08:19:03;9.67;;;4.17;;
17496;SDS011;62150;43.582;1.456;2024-01-30T08:21:31;10.87;;;4.33;;
17496;SDS011;62150;43.582;1.456;2024-01-30T08:24:03;11.23;;;4.83;;
17496;SDS011;62150;43.582;1.456;2024-01-30T08:26:31;12.07;;;5.60;;
17496;SDS011;62150;43.582;1.456;2024-01-30T08:29:00;12.00;;;4.50;;
17496;SDS011;62150;43.582;1.456;2024-01-30T08:31:28;11.37;;;4.53;;
17496;SDS011;62150;43.582;1.456;2024-01-30T08:33:55;12.23;;;4.83;;
17496;SDS011;62150;43.582;1.456;2024-01-30T08:36:25;12.90;;;5.50;;
17496;SDS011;62150;43.582;1.456;2024-01-30T08:38:53;12.00;;;5.50;;
17496;SDS011;62150;43.582;1.456;2024-01-30T08:41:21;13.20;;;4.97;;
17496;SDS011;62150;43.582;1.456;2024-01-30T08:43:49;12.33;;;4.93;;
17496;SDS011;62150;43.582;1.456;2024-01-30T08:46:17;12.30;;;4.57;;
17496;SDS011;62150;43.582;1.456;2024-01-30T08:48:45;12.97;;;4.70;;
17496;SDS011;62150;43.582;1.456;2024-01-30T08:51:13;12.23;;;4.07;;
17496;SDS011;62150;43.582;1.456;2024-01-30T08:53:41;10.67;;;4.30;;
17496;SDS011;62150;43.582;1.456;2024-01-30T08:56:08;11.83;;;4.37;;
17496;SDS011;62150;43.582;1.456;2024-01-30T08:58:37;12.97;;;4.80;;
17496;SDS011;62150;43.582;1.456;2024-01-30T09:01:05;10.00;;;3.83;;
17496;SDS011;62150;43.582;1.456;2024-01-30T09:03:32;11.10;;;3.87;;
17496;SDS011;62150;43.582;1.456;2024-01-30T09:06:00;11.70;;;4.20;;
17496;SDS011;62150;43.582;1.456;2024-01-30T09:08:28;10.80;;;4.10;;
17496;SDS011;62150;43.582;1.456;2024-01-30T09:10:55;11.13;;;4.27;;
17496;SDS011;62150;43.582;1.456;2024-01-30T09:13:22;9.07;;;4.00;;
17496;SDS011;62150;43.582;1.456;2024-01-30T09:15:51;14.60;;;4.30;;
17496;SDS011;62150;43.582;1.456;2024-01-30T09:18:20;10.67;;;4.20;;
17496;SDS011;62150;43.582;1.456;2024-01-30T09:20:47;12.50;;;4.00;;
17496;SDS011;62150;43.582;1.456;2024-01-30T09:23:15;9.90;;;3.97;;
17496;SDS011;62150;43.582;1.456;2024-01-30T09:25:43;12.23;;;4.33;;
17496;SDS011;62150;43.582;1.456;2024-01-30T09:28:11;10.50;;;4.53;;
17496;SDS011;62150;43.582;1.456;2024-01-30T09:30:39;15.23;;;4.93;;
17496;SDS011;62150;43.582;1.456;2024-01-30T09:33:08;13.73;;;6.67;;
17496;SDS011;62150;43.582;1.456;2024-01-30T09:35:38;14.10;;;7.20;;
17496;SDS011;62150;43.582;1.456;2024-01-30T09:38:06;11.53;;;5.43;;
17496;SDS011;62150;43.582;1.456;2024-01-30T09:40:33;12.07;;;5.27;;
17496;SDS011;62150;43.582;1.456;2024-01-30T09:43:01;11.27;;;4.33;;
17496;SDS011;62150;43.582;1.456;2024-01-30T09:45:28;11.13;;;4.43;;
17496;SDS011;62150;43.582;1.456;2024-01-30T09:47:59;9.53;;;4.00;;
17496;SDS011;62150;43.582;1.456;2024-01-30T09:50:28;8.67;;;4.00;;
17496;SDS011;62150;43.582;1.456;2024-01-30T09:52:55;9.73;;;3.87;;
17496;SDS011;62150;43.582;1.456;2024-01-30T09:55:24;9.53;;;3.93;;
17496;SDS011;62150;43.582;1.456;2024-01-30T09:57:52;14.83;;;4.13;;
17496;SDS011;62150;43.582;1.456;2024-01-30T10:00:20;11.50;;;3.87;;
17496;SDS011;62150;43.582;1.456;2024-01-30T10:02:52;9.93;;;4.00;;
17496;SDS011;62150;43.582;1.456;2024-01-30T10:05:19;9.60;;;3.93;;
17496;SDS011;62150;43.582;1.456;2024-01-30T10:07:54;10.60;;;3.70;;
17496;SDS011;62150;43.582;1.456;2024-01-30T10:10:22;8.40;;;3.80;;
17496;SDS011;62150;43.582;1.456;2024-01-30T10:12:49;10.63;;;3.70;;
17496;SDS011;62150;43.582;1.456;2024-01-30T10:15:17;12.63;;;3.67;;
17496;SDS011;62150;43.582;1.456;2024-01-30T10:17:45;12.10;;;3.60;;
17496;SDS011;62150;43.582;1.456;2024-01-30T10:20:12;9.63;;;3.60;;
17496;SDS011;62150;43.582;1.456;2024-01-30T10:22:40;10.53;;;3.73;;
17496;SDS011;62150;43.582;1.456;2024-01-30T10:25:10;9.27;;;3.70;;
17496;SDS011;62150;43.582;1.456;2024-01-30T10:27:39;9.93;;;3.80;;
17496;SDS011;62150;43.582;1.456;2024-01-30T10:30:07;9.27;;;3.57;;
17496;SDS011;62150;43.582;1.456;2024-01-30T10:32:35;9.33;;;3.63;;
17496;SDS011;62150;43.582;1.456;2024-01-30T10:35:02;9.97;;;3.80;;
17496;SDS011;62150;43.582;1.456;2024-01-30T10:37:30;11.27;;;3.90;;
17496;SDS011;62150;43.582;1.456;2024-01-30T10:39:59;9.50;;;3.93;;
17496;SDS011;62150;43.582;1.456;2024-01-30T10:42:32;8.30;;;3.30;;
17496;SDS011;62150;43.582;1.456;2024-01-30T10:45:05;8.97;;;3.87;;
17496;SDS011;62150;43.582;1.456;2024-01-30T10:47:35;11.67;;;4.23;;
17496;SDS011;62150;43.582;1.456;2024-01-30T10:50:03;11.03;;;3.73;;
17496;SDS011;62150;43.582;1.456;2024-01-30T10:52:32;11.80;;;3.83;;
17496;SDS011;62150;43.582;1.456;2024-01-30T10:55:00;10.30;;;3.83;;
17496;SDS011;62150;43.582;1.456;2024-01-30T10:57:32;9.43;;;3.53;;
17496;SDS011;62150;43.582;1.456;2024-01-30T11:00:02;9.17;;;3.50;;
17496;SDS011;62150;43.582;1.456;2024-01-30T11:02:35;13.50;;;3.90;;
17496;SDS011;62150;43.582;1.456;2024-01-30T11:05:04;9.07;;;3.70;;
17496;SDS011;62150;43.582;1.456;2024-01-30T11:07:33;10.10;;;3.40;;
17496;SDS011;62150;43.582;1.456;2024-01-30T11:10:02;9.37;;;3.57;;
17496;SDS011;62150;43.582;1.456;2024-01-30T11:12:37;9.83;;;3.60;;
17496;SDS011;62150;43.582;1.456;2024-01-30T11:15:09;8.60;;;3.50;;
17496;SDS011;62150;43.582;1.456;2024-01-30T11:17:41;8.60;;;3.40;;
17496;SDS011;62150;43.582;1.456;2024-01-30T11:20:10;9.47;;;3.70;;
17496;SDS011;62150;43.582;1.456;2024-01-30T11:22:40;10.67;;;3.60;;
17496;SDS011;62150;43.582;1.456;2024-01-30T11:25:13;6.97;;;3.07;;
17496;SDS011;62150;43.582;1.456;2024-01-30T11:27:43;9.77;;;3.40;;
17496;SDS011;62150;43.582;1.456;2024-01-30T11:30:20;9.63;;;3.20;;
17496;SDS011;62150;43.582;1.456;2024-01-30T11:32:57;8.20;;;3.03;;
17496;SDS011;62150;43.582;1.456;2024-01-30T11:35:31;10.50;;;4.03;;
17496;SDS011;62150;43.582;1.456;2024-01-30T11:37:59;8.27;;;3.30;;
17496;SDS011;62150;43.582;1.456;2024-01-30T11:40:28;10.63;;;3.50;;
17496;SDS011;62150;43.582;1.456;2024-01-30T11:42:58;9.83;;;3.70;;
17496;SDS011;62150;43.582;1.456;2024-01-30T11:45:26;8.63;;;3.53;;
17496;SDS011;62150;43.582;1.456;2024-01-30T11:47:54;8.87;;;3.40;;
17496;SDS011;62150;43.582;1.456;2024-01-30T11:50:22;7.13;;;2.97;;
17496;SDS011;62150;43.582;1.456;2024-01-30T11:52:51;7.20;;;3.10;;
17496;SDS011;62150;43.582;1.456;2024-01-30T11:55:20;10.50;;;3.27;;
17496;SDS011;62150;43.582;1.456;2024-01-30T11:57:47;9.03;;;3.33;;
17496;SDS011;62150;43.582;1.456;2024-01-30T12:00:17;9.23;;;3.27;;
17496;SDS011;62150;43.582;1.456;2024-01-30T12:02:48;7.60;;;3.10;;
17496;SDS011;62150;43.582;1.456;2024-01-30T12:05:18;10.60;;;3.40;;
17496;SDS011;62150;43.582;1.456;2024-01-30T12:07:46;6.57;;;2.80;;
17496;SDS011;62150;43.582;1.456;2024-01-30T12:10:14;11.63;;;3.30;;
17496;SDS011;62150;43.582;1.456;2024-01-30T12:12:43;7.57;;;3.07;;
17496;SDS011;62150;43.582;1.456;2024-01-30T12:15:12;6.77;;;2.90;;
17496;SDS011;62150;43.582;1.456;2024-01-30T12:17:42;7.93;;;2.90;;
17496;SDS011;62150;43.582;1.456;2024-01-30T12:20:10;10.50;;;3.13;;
17496;SDS011;62150;43.582;1.456;2024-01-30T12:22:38;7.50;;;3.10;;
17496;SDS011;62150;43.582;1.456;2024-01-30T12:25:08;10.73;;;3.20;;
17496;SDS011;62150;43.582;1.456;2024-01-30T12:27:39;7.93;;;3.23;;
17496;SDS011;62150;43.582;1.456;2024-01-30T12:30:09;7.50;;;3.10;;
17496;SDS011;62150;43.582;1.456;2024-01-30T12:32:39;8.43;;;3.00;;
17496;SDS011;62150;43.582;1.456;2024-01-30T12:35:09;10.37;;;3.67;;
17496;SDS011;62150;43.582;1.456;2024-01-30T12:37:37;8.60;;;3.10;;
17496;SDS011;62150;43.582;1.456;2024-01-30T12:40:05;8.70;;;3.30;;
17496;SDS011;62150;43.582;1.456;2024-01-30T12:42:34;8.03;;;3.10;;
17496;SDS011;62150;43.582;1.456;2024-01-30T12:45:02;10.53;;;3.60;;
17496;SDS011;62150;43.582;1.456;2024-01-30T12:47:30;7.95;;;3.22;;
17496;SDS011;62150;43.582;1.456;2024-01-30T12:49:59;8.50;;;2.73;;
17496;SDS011;62150;43.582;1.456;2024-01-30T12:52:27;7.10;;;3.00;;
17496;SDS011;62150;43.582;1.456;2024-01-30T12:54:55;9.03;;;3.40;;
17496;SDS011;62150;43.582;1.456;2024-01-30T12:57:22;10.70;;;3.30;;
17496;SDS011;62150;43.582;1.456;2024-01-30T12:59:50;11.17;;;3.47;;
17496;SDS011;62150;43.582;1.456;2024-01-30T13:02:17;10.20;;;4.00;;
17496;SDS011;62150;43.582;1.456;2024-01-30T13:04:45;8.50;;;3.37;;
17496;SDS011;62150;43.582;1.456;2024-01-30T13:07:14;9.37;;;3.10;;
17496;SDS011;62150;43.582;1.456;2024-01-30T13:09:42;10.53;;;3.53;;
17496;SDS011;62150;43.582;1.456;2024-01-30T13:12:09;11.20;;;3.80;;
17496;SDS011;62150;43.582;1.456;2024-01-30T13:14:37;9.27;;;3.30;;
17496;SDS011;62150;43.582;1.456;2024-01-30T13:17:04;8.70;;;3.20;;
17496;SDS011;62150;43.582;1.456;2024-01-30T13:19:32;7.90;;;3.20;;
17496;SDS011;62150;43.582;1.456;2024-01-30T13:21:59;8.17;;;3.10;;
17496;SDS011;62150;43.582;1.456;2024-01-30T13:24:28;8.13;;;3.17;;
17496;SDS011;62150;43.582;1.456;2024-01-30T13:26:56;9.03;;;3.17;;
17496;SDS011;62150;43.582;1.456;2024-01-30T13:29:23;5.70;;;2.80;;
17496;SDS011;62150;43.582;1.456;2024-01-30T13:31:51;7.07;;;3.03;;
17496;SDS011;62150;43.582;1.456;2024-01-30T13:34:18;8.60;;;3.00;;
17496;SDS011;62150;43.582;1.456;2024-01-30T13:36:46;7.73;;;3.13;;
17496;SDS011;62150;43.582;1.456;2024-01-30T13:39:14;8.43;;;2.97;;
17496;SDS011;62150;43.582;1.456;2024-01-30T13:41:43;8.33;;;3.40;;
17496;SDS011;62150;43.582;1.456;2024-01-30T13:44:10;10.03;;;3.23;;
17496;SDS011;62150;43.582;1.456;2024-01-30T13:46:37;8.93;;;3.00;;
17496;SDS011;62150;43.582;1.456;2024-01-30T13:49:05;7.63;;;3.10;;
17496;SDS011;62150;43.582;1.456;2024-01-30T13:51:32;7.03;;;2.93;;
17496;SDS011;62150;43.582;1.456;2024-01-30T13:54:00;8.32;;;3.03;;
17496;SDS011;62150;43.582;1.456;2024-01-30T13:56:28;5.70;;;2.80;;
17496;SDS011;62150;43.582;1.456;2024-01-30T13:58:57;8.47;;;3.00;;
17496;SDS011;62150;43.582;1.456;2024-01-30T14:01:26;10.30;;;3.20;;
17496;SDS011;62150;43.582;1.456;2024-01-30T14:03:54;7.67;;;3.00;;
17496;SDS011;62150;43.582;1.456;2024-01-30T14:06:21;7.80;;;3.07;;
17496;SDS011;62150;43.582;1.456;2024-01-30T14:08:49;9.03;;;3.30;;
17496;SDS011;62150;43.582;1.456;2024-01-30T14:11:16;8.57;;;2.90;;
17496;SDS011;62150;43.582;1.456;2024-01-30T14:13:44;6.87;;;3.00;;
17496;SDS011;62150;43.582;1.456;2024-01-30T14:16:13;7.53;;;2.83;;
17496;SDS011;62150;43.582;1.456;2024-01-30T14:18:40;6.80;;;2.83;;
17496;SDS011;62150;43.582;1.456;2024-01-30T14:21:08;8.33;;;3.10;;
17496;SDS011;62150;43.582;1.456;2024-01-30T14:23:35;9.23;;;3.13;;
17496;SDS011;62150;43.582;1.456;2024-01-30T14:26:04;6.90;;;2.77;;
17496;SDS011;62150;43.582;1.456;2024-01-30T14:28:32;8.67;;;2.80;;
17496;SDS011;62150;43.582;1.456;2024-01-30T14:30:59;8.07;;;2.90;;
17496;SDS011;62150;43.582;1.456;2024-01-30T14:33:28;8.03;;;2.90;;
17496;SDS011;62150;43.582;1.456;2024-01-30T14:35:56;8.47;;;2.90;;
17496;SDS011;62150;43.582;1.456;2024-01-30T14:38:23;6.50;;;3.00;;
17496;SDS011;62150;43.582;1.456;2024-01-30T14:40:51;7.73;;;2.97;;
17496;SDS011;62150;43.582;1.456;2024-01-30T14:43:18;7.57;;;2.77;;
17496;SDS011;62150;43.582;1.456;2024-01-30T14:45:46;6.13;;;2.80;;
17496;SDS011;62150;43.582;1.456;2024-01-30T14:48:14;7.57;;;2.87;;
17496;SDS011;62150;43.582;1.456;2024-01-30T14:50:43;9.83;;;3.10;;
17496;SDS011;62150;43.582;1.456;2024-01-30T14:53:11;9.60;;;3.50;;
17496;SDS011;62150;43.582;1.456;2024-01-30T14:55:39;7.35;;;2.90;;
17496;SDS011;62150;43.582;1.456;2024-01-30T14:58:06;9.53;;;3.00;;
17496;SDS011;62150;43.582;1.456;2024-01-30T15:00:34;8.47;;;3.33;;
17496;SDS011;62150;43.582;1.456;2024-01-30T15:03:03;9.33;;;3.30;;
17496;SDS011;62150;43.582;1.456;2024-01-30T15:05:31;7.33;;;3.10;;
17496;SDS011;62150;43.582;1.456;2024-01-30T15:08:00;9.23;;;3.47;;
17496;SDS011;62150;43.582;1.456;2024-01-30T15:10:27;8.63;;;3.07;;
17496;SDS011;62150;43.582;1.456;2024-01-30T15:12:55;6.97;;;2.97;;
17496;SDS011;62150;43.582;1.456;2024-01-30T15:15:22;5.60;;;2.80;;
17496;SDS011;62150;43.582;1.456;2024-01-30T15:17:50;8.43;;;3.30;;
17496;SDS011;62150;43.582;1.456;2024-01-30T15:20:17;8.87;;;3.00;;
17496;SDS011;62150;43.582;1.456;2024-01-30T15:22:45;8.30;;;3.10;;
17496;SDS011;62150;43.582;1.456;2024-01-30T15:25:15;7.65;;;3.05;;
17496;SDS011;62150;43.582;1.456;2024-01-30T15:27:42;7.50;;;3.03;;
17496;SDS011;62150;43.582;1.456;2024-01-30T15:30:10;8.60;;;3.13;;
17496;SDS011;62150;43.582;1.456;2024-01-30T15:32:38;8.43;;;3.10;;
17496;SDS011;62150;43.582;1.456;2024-01-30T15:35:06;8.73;;;2.97;;
17496;SDS011;62150;43.582;1.456;2024-01-30T15:37:34;10.43;;;3.07;;
17496;SDS011;62150;43.582;1.456;2024-01-30T15:40:02;10.97;;;3.50;;
17496;SDS011;62150;43.582;1.456;2024-01-30T15:42:32;7.93;;;3.53;;
17496;SDS011;62150;43.582;1.456;2024-01-30T15:45:00;8.00;;;3.20;;
17496;SDS011;62150;43.582;1.456;2024-01-30T15:47:27;7.47;;;3.00;;
17496;SDS011;62150;43.582;1.456;2024-01-30T15:49:55;8.87;;;3.43;;
17496;SDS011;62150;43.582;1.456;2024-01-30T15:52:23;8.83;;;3.20;;
17496;SDS011;62150;43.582;1.456;2024-01-30T15:54:51;10.30;;;3.30;;
17496;SDS011;62150;43.582;1.456;2024-01-30T15:57:18;6.30;;;2.87;;
17496;SDS011;62150;43.582;1.456;2024-01-30T15:59:47;7.73;;;3.13;;
17496;SDS011;62150;43.582;1.456;2024-01-30T16:02:14;8.43;;;4.03;;
17496;SDS011;62150;43.582;1.456;2024-01-30T16:04:43;8.73;;;3.30;;
17496;SDS011;62150;43.582;1.456;2024-01-30T16:07:10;8.70;;;3.37;;
17496;SDS011;62150;43.582;1.456;2024-01-30T16:09:38;8.07;;;3.40;;
17496;SDS011;62150;43.582;1.456;2024-01-30T16:12:06;9.17;;;3.27;;
17496;SDS011;62150;43.582;1.456;2024-01-30T16:14:33;9.30;;;3.37;;
17496;SDS011;62150;43.582;1.456;2024-01-30T16:17:02;9.57;;;3.93;;
17496;SDS011;62150;43.582;1.456;2024-01-30T16:19:30;9.50;;;3.37;;
17496;SDS011;62150;43.582;1.456;2024-01-30T16:21:58;10.40;;;3.77;;
17496;SDS011;62150;43.582;1.456;2024-01-30T16:24:26;8.40;;;3.80;;
17496;SDS011;62150;43.582;1.456;2024-01-30T16:26:53;10.03;;;4.03;;
17496;SDS011;62150;43.582;1.456;2024-01-30T16:29:22;11.77;;;4.07;;
17496;SDS011;62150;43.582;1.456;2024-01-30T16:31:49;8.57;;;3.30;;
17496;SDS011;62150;43.582;1.456;2024-01-30T16:34:18;7.03;;;3.07;;
17496;SDS011;62150;43.582;1.456;2024-01-30T16:36:45;9.50;;;3.60;;
17496;SDS011;62150;43.582;1.456;2024-01-30T16:39:13;9.27;;;3.50;;
17496;SDS011;62150;43.582;1.456;2024-01-30T16:41:41;10.93;;;3.33;;
17496;SDS011;62150;43.582;1.456;2024-01-30T16:44:08;7.33;;;2.97;;
17496;SDS011;62150;43.582;1.456;2024-01-30T16:46:35;8.23;;;3.10;;
17496;SDS011;62150;43.582;1.456;2024-01-30T16:49:04;8.17;;;3.20;;
17496;SDS011;62150;43.582;1.456;2024-01-30T16:51:33;7.23;;;3.17;;
17496;SDS011;62150;43.582;1.456;2024-01-30T16:54:01;9.10;;;3.30;;
17496;SDS011;62150;43.582;1.456;2024-01-30T16:56:28;9.27;;;3.50;;
17496;SDS011;62150;43.582;1.456;2024-01-30T16:58:56;10.50;;;3.90;;
17496;SDS011;62150;43.582;1.456;2024-01-30T17:01:23;8.70;;;3.43;;
17496;SDS011;62150;43.582;1.456;2024-01-30T17:03:51;10.20;;;3.60;;
17496;SDS011;62150;43.582;1.456;2024-01-30T17:06:19;8.47;;;3.30;;
17496;SDS011;62150;43.582;1.456;2024-01-30T17:08:48;8.67;;;3.60;;
17496;SDS011;62150;43.582;1.456;2024-01-30T17:11:15;8.50;;;3.30;;
17496;SDS011;62150;43.582;1.456;2024-01-30T17:13:43;10.50;;;4.00;;
17496;SDS011;62150;43.582;1.456;2024-01-30T17:16:10;9.80;;;4.00;;
17496;SDS011;62150;43.582;1.456;2024-01-30T17:18:38;8.93;;;4.10;;
17496;SDS011;62150;43.582;1.456;2024-01-30T17:21:05;11.87;;;4.07;;
17496;SDS011;62150;43.582;1.456;2024-01-30T17:23:34;10.67;;;4.00;;
17496;SDS011;62150;43.582;1.456;2024-01-30T17:26:04;11.43;;;4.27;;
17496;SDS011;62150;43.582;1.456;2024-01-30T17:28:32;11.30;;;4.47;;
17496;SDS011;62150;43.582;1.456;2024-01-30T17:30:59;10.17;;;3.87;;
17496;SDS011;62150;43.582;1.456;2024-01-30T17:33:27;8.87;;;3.63;;
17496;SDS011;62150;43.582;1.456;2024-01-30T17:35:54;9.07;;;3.60;;
17496;SDS011;62150;43.582;1.456;2024-01-30T17:38:22;9.60;;;3.80;;
17496;SDS011;62150;43.582;1.456;2024-01-30T17:40:49;7.90;;;3.50;;
17496;SDS011;62150;43.582;1.456;2024-01-30T17:43:18;11.47;;;3.80;;
17496;SDS011;62150;43.582;1.456;2024-01-30T17:45:46;10.80;;;4.30;;
17496;SDS011;62150;43.582;1.456;2024-01-30T17:48:13;9.57;;;3.77;;
17496;SDS011;62150;43.582;1.456;2024-01-30T17:50:41;8.30;;;4.10;;
17496;SDS011;62150;43.582;1.456;2024-01-30T17:53:09;10.60;;;4.57;;
17496;SDS011;62150;43.582;1.456;2024-01-30T17:55:37;13.27;;;6.67;;
17496;SDS011;62150;43.582;1.456;2024-01-30T17:58:04;15.60;;;7.40;;
17496;SDS011;62150;43.582;1.456;2024-01-30T18:00:33;14.43;;;8.33;;
17496;SDS011;62150;43.582;1.456;2024-01-30T18:03:01;13.80;;;6.80;;
17496;SDS011;62150;43.582;1.456;2024-01-30T18:05:29;12.07;;;6.17;;
17496;SDS011;62150;43.582;1.456;2024-01-30T18:07:57;13.80;;;5.63;;
17496;SDS011;62150;43.582;1.456;2024-01-30T18:10:24;12.80;;;5.50;;
17496;SDS011;62150;43.582;1.456;2024-01-30T18:12:52;12.53;;;5.73;;
17496;SDS011;62150;43.582;1.456;2024-01-30T18:15:21;12.70;;;5.13;;
17496;SDS011;62150;43.582;1.456;2024-01-30T18:17:50;12.33;;;5.10;;
17496;SDS011;62150;43.582;1.456;2024-01-30T18:20:17;12.10;;;5.20;;
17496;SDS011;62150;43.582;1.456;2024-01-30T18:22:45;10.40;;;4.63;;
17496;SDS011;62150;43.582;1.456;2024-01-30T18:25:12;9.57;;;4.30;;
17496;SDS011;62150;43.582;1.456;2024-01-30T18:27:40;9.60;;;4.63;;
17496;SDS011;62150;43.582;1.456;2024-01-30T18:30:08;10.90;;;4.93;;
17496;SDS011;62150;43.582;1.456;2024-01-30T18:32:37;11.77;;;5.20;;
17496;SDS011;62150;43.582;1.456;2024-01-30T18:35:06;11.23;;;5.10;;
17496;SDS011;62150;43.582;1.456;2024-01-30T18:37:34;13.37;;;5.37;;
17496;SDS011;62150;43.582;1.456;2024-01-30T18:40:01;12.10;;;5.13;;
17496;SDS011;62150;43.582;1.456;2024-01-30T18:42:29;11.13;;;4.73;;
17496;SDS011;62150;43.582;1.456;2024-01-30T18:44:57;10.53;;;4.40;;
17496;SDS011;62150;43.582;1.456;2024-01-30T18:47:24;11.13;;;4.90;;
17496;SDS011;62150;43.582;1.456;2024-01-30T18:49:52;12.97;;;4.80;;
17496;SDS011;62150;43.582;1.456;2024-01-30T18:52:21;9.57;;;4.33;;
17496;SDS011;62150;43.582;1.456;2024-01-30T18:54:49;9.37;;;3.80;;
17496;SDS011;62150;43.582;1.456;2024-01-30T18:57:17;9.53;;;4.30;;
17496;SDS011;62150;43.582;1.456;2024-01-30T18:59:44;9.63;;;5.20;;
17496;SDS011;62150;43.582;1.456;2024-01-30T19:02:12;10.40;;;4.83;;
17496;SDS011;62150;43.582;1.456;2024-01-30T19:04:40;11.87;;;4.50;;
17496;SDS011;62150;43.582;1.456;2024-01-30T19:07:08;11.30;;;4.73;;
17496;SDS011;62150;43.582;1.456;2024-01-30T19:09:36;10.37;;;4.73;;
17496;SDS011;62150;43.582;1.456;2024-01-30T19:12:04;9.87;;;4.87;;
17496;SDS011;62150;43.582;1.456;2024-01-30T19:14:32;11.73;;;5.67;;
17496;SDS011;62150;43.582;1.456;2024-01-30T19:17:01;11.47;;;5.30;;
17496;SDS011;62150;43.582;1.456;2024-01-30T19:19:28;10.70;;;5.17;;
17496;SDS011;62150;43.582;1.456;2024-01-30T19:21:56;11.17;;;5.10;;
17496;SDS011;62150;43.582;1.456;2024-01-30T19:24:23;12.83;;;5.53;;